Time;durP1;ratioP1;P1;durP2;ratioP2;P2;SDS_P1;SDS_P2;PMS_P1;PMS_P2;Temp;Humidity;BMP_temperature;BMP_pressure;BME280_temperature;BME280_humidity;BME280_pressure;Samples;Min_cycle;Max_cycle;Signal;HPM_P1;HPM_P2
2022/12/28 00:01:09;;;;;;;12.52;5.82;;;;;;;9.71;71.42;101486.03;4990686;28;20030;-41
2022/12/28 00:03:35;;;;;;;12.30;5.60;;;;;;;9.70;71.66;101476.44;4992259;28;20037;-42
2022/12/28 00:06:02;;;;;;;11.25;5.20;;;;;;;9.86;71.13;101464.72;4986867;28;20046;-41
2022/12/28 00:08:27;;;;;;;13.35;5.55;;;;;;;9.95;70.84;101470.16;4990650;28;20402;-45
2022/12/28 00:10:54;;;;;;;11.98;5.68;;;;;;;9.98;70.20;101454.59;4988351;28;20030;-43
2022/12/28 00:13:20;;;;;;;11.40;5.25;;;;;;;9.99;70.83;101443.34;4967755;28;20041;-41
2022/12/28 00:15:45;;;;;;;13.38;5.47;;;;;;;10.07;70.39;101441.78;4969457;28;20030;-40
2022/12/28 00:18:10;;;;;;;9.55;5.40;;;;;;;9.83;71.08;101430.78;4967394;28;20146;-41
2022/12/28 00:20:36;;;;;;;12.02;5.70;;;;;;;9.78;71.57;101435.88;4969067;28;20043;-42
2022/12/28 00:23:05;;;;;;;10.15;5.45;;;;;;;10.13;70.14;101423.72;4967375;28;20047;-42
2022/12/28 00:25:30;;;;;;;14.15;5.28;;;;;;;9.90;70.75;101406.66;4969936;28;20503;-43
2022/12/28 00:27:55;;;;;;;12.18;5.28;;;;;;;10.13;70.68;101407.19;4968508;28;20093;-40
2022/12/28 00:30:20;;;;;;;11.35;5.32;;;;;;;10.03;70.58;101407.81;4969641;28;20042;-40
2022/12/28 00:32:46;;;;;;;12.20;5.55;;;;;;;9.94;71.06;101402.41;4969026;28;20058;-42
2022/12/28 00:35:11;;;;;;;12.90;5.68;;;;;;;10.16;70.52;101394.25;4966843;28;20027;-41
2022/12/28 00:37:36;;;;;;;11.13;5.63;;;;;;;10.20;69.96;101388.28;4969108;28;20038;-43
2022/12/28 00:40:02;;;;;;;13.13;5.68;;;;;;;10.24;70.02;101384.03;4966860;28;20039;-43
2022/12/28 00:42:27;;;;;;;10.60;5.85;;;;;;;10.30;69.68;101363.34;4968993;28;20042;-41
2022/12/28 00:44:52;;;;;;;12.20;6.10;;;;;;;10.47;69.36;101343.72;4970753;28;20039;-42
2022/12/28 00:47:18;;;;;;;11.70;6.43;;;;;;;10.30;69.78;101364.22;4967534;28;20089;-41
2022/12/28 00:49:43;;;;;;;14.05;6.63;;;;;;;10.34;69.71;101360.81;4968941;28;20515;-41
2022/12/28 00:52:08;;;;;;;12.20;6.43;;;;;;;10.42;69.84;101363.59;4966524;28;20038;-42
2022/12/28 00:54:34;;;;;;;11.35;6.30;;;;;;;10.40;69.19;101360.97;4969352;28;20100;-41
2022/12/28 00:56:59;;;;;;;13.63;6.68;;;;;;;10.33;69.09;101369.47;4970097;28;20492;-41
2022/12/28 00:59:24;;;;;;;14.65;6.40;;;;;;;10.49;69.19;101363.75;4970284;28;20375;-41
2022/12/28 01:01:49;;;;;;;13.23;6.93;;;;;;;10.36;69.78;101356.53;4971448;28;20041;-42
2022/12/28 01:04:15;;;;;;;11.38;6.30;;;;;;;10.56;69.06;101354.31;4969383;28;20030;-40
2022/12/28 01:06:40;;;;;;;10.73;6.47;;;;;;;10.40;69.39;101341.84;4971201;28;20038;-43
2022/12/28 01:09:05;;;;;;;11.65;6.47;;;;;;;10.33;69.88;101339.94;4970328;28;20400;-41
2022/12/28 01:11:31;;;;;;;14.13;6.43;;;;;;;10.50;68.51;101329.00;4972155;28;20084;-42
2022/12/28 01:13:59;;;;;;;12.13;6.32;;;;;;;10.81;68.04;101329.63;4970664;28;20039;-42
2022/12/28 01:16:27;;;;;;;13.05;6.50;;;;;;;10.27;68.67;101332.88;4970926;28;20031;-41
2022/12/28 01:18:57;;;;;;;13.88;6.35;;;;;;;10.41;69.30;101302.78;4970912;28;20081;-44
2022/12/28 01:21:25;;;;;;;12.20;6.25;;;;;;;10.63;68.96;101311.91;4990536;28;20041;-42
2022/12/28 01:23:56;;;;;;;11.68;5.95;;;;;;;10.35;69.61;101299.16;4991841;28;20038;-41
2022/12/28 01:26:21;;;;;;;10.57;5.72;;;;;;;10.62;68.47;101302.31;4987594;28;20034;-39
2022/12/28 01:28:47;;;;;;;11.07;5.57;;;;;;;10.66;68.16;101295.44;4991223;28;20565;-41
2022/12/28 01:31:15;;;;;;;11.93;6.10;;;;;;;10.39;69.16;101309.66;4990189;28;20042;-42
2022/12/28 01:33:42;;;;;;;11.90;5.95;;;;;;;10.71;68.18;101301.63;4989256;28;20046;-41
2022/12/28 01:36:12;;;;;;;10.15;6.00;;;;;;;10.37;69.09;101293.09;4988473;28;20515;-43
2022/12/28 01:38:38;;;;;;;12.05;6.13;;;;;;;10.35;68.89;101287.00;4990884;28;20042;-40
2022/12/28 01:41:06;;;;;;;12.10;6.43;;;;;;;10.86;67.70;101275.81;4989196;28;20038;-41
2022/12/28 01:43:41;;;;;;;9.23;5.80;;;;;;;10.78;68.01;101282.66;4991428;28;20086;-42
2022/12/28 01:46:11;;;;;;;11.23;6.18;;;;;;;10.97;67.38;101279.53;4988810;28;20042;-41
2022/12/28 01:49:02;;;;;;;14.57;6.30;;;;;;;10.63;68.74;101279.72;4991486;28;20094;-42
2022/12/28 01:51:33;;;;;;;10.40;5.80;;;;;;;11.31;66.39;101275.75;4953258;28;20065;-42
2022/12/28 01:54:00;;;;;;;11.55;6.43;;;;;;;10.91;66.81;101280.31;4989209;28;20042;-41
2022/12/28 01:56:26;;;;;;;12.23;6.25;;;;;;;10.93;67.10;101260.31;4992716;28;20121;-42
2022/12/28 01:58:53;;;;;;;14.52;6.35;;;;;;;11.32;66.20;101236.66;4993258;28;20061;-41
2022/12/28 02:01:18;;;;;;;11.23;6.15;;;;;;;10.67;68.08;101258.97;4991091;28;20039;-41
2022/12/28 02:03:44;;;;;;;11.32;6.43;;;;;;;10.92;67.14;101263.78;4989481;28;20051;-41
2022/12/28 02:06:11;;;;;;;11.93;6.10;;;;;;;11.37;66.04;101268.03;4991518;28;20122;-41
2022/12/28 02:08:51;;;;;;;9.80;5.97;;;;;;;11.15;67.16;101264.19;4992851;28;20035;-41
2022/12/28 02:11:18;;;;;;;11.00;6.25;;;;;;;11.09;66.84;101243.22;4991470;28;20039;-42
2022/12/28 02:13:46;;;;;;;11.32;6.07;;;;;;;11.27;66.86;101230.47;4992841;28;20125;-41
2022/12/28 02:16:11;;;;;;;10.38;5.53;;;;;;;11.21;66.51;101232.09;4990654;28;20117;-41
2022/12/28 02:18:39;;;;;;;10.25;5.50;;;;;;;10.98;67.74;101232.56;4987383;28;20590;-41
2022/12/28 02:21:22;;;;;;;11.98;5.95;;;;;;;11.26;66.84;101233.06;4984593;28;20259;-42
2022/12/28 02:24:21;;;;;;;10.30;6.03;;;;;;;11.29;66.95;101222.66;4987118;28;20053;-40
2022/12/28 02:26:55;;;;;;;8.93;5.95;;;;;;;10.90;67.71;101215.06;4986472;28;20030;-41
2022/12/28 02:29:35;;;;;;;10.67;5.80;;;;;;;10.86;67.58;101203.66;4990291;28;20094;-41
2022/12/28 02:32:20;;;;;;;11.90;6.40;;;;;;;10.84;68.46;101231.47;4989112;28;20053;-39
2022/12/28 02:35:01;;;;;;;10.05;5.88;;;;;;;10.96;67.43;101218.66;4968997;28;20045;-41
2022/12/28 02:37:35;;;;;;;10.15;6.10;;;;;;;10.97;68.21;101223.03;4983565;28;20069;-40
2022/12/28 02:40:08;;;;;;;9.80;5.87;;;;;;;11.38;67.11;101214.97;4984984;28;20034;-43
2022/12/28 02:42:36;;;;;;;9.82;5.75;;;;;;;10.83;68.58;101206.25;4986867;28;20030;-41
2022/12/28 02:50:46;;;;;;;9.45;5.80;;;;;;;10.86;69.21;101213.22;4987065;28;20804;-43
2022/12/28 02:53:34;;;;;;;9.35;5.93;;;;;;;10.71;69.90;101215.56;4984745;28;20047;-42
2022/12/28 02:56:09;;;;;;;9.52;5.97;;;;;;;10.94;69.71;101217.72;4985047;28;20092;-42
2022/12/28 02:58:55;;;;;;;12.82;6.20;;;;;;;11.24;68.91;101208.66;4990951;28;20121;-42
2022/12/28 03:01:29;;;;;;;10.85;6.13;;;;;;;11.12;68.99;101211.06;4988998;28;20088;-41
2022/12/28 03:03:58;;;;;;;;;;;;;;;11.22;69.32;101199.94;4990521;28;20573;-42
2022/12/28 03:09:55;;;;;;;9.48;6.05;;;;;;;10.93;71.48;101200.31;5008148;28;20033;-40
2022/12/28 03:12:20;;;;;;;12.50;6.20;;;;;;;11.04;71.51;101197.88;5007813;28;20042;-43
2022/12/28 03:15:02;;;;;;;10.30;5.82;;;;;;;11.08;71.00;101186.66;5009871;28;20041;-44
2022/12/28 03:31:33;;;;;;;12.65;5.93;;;;;;;10.76;73.03;101180.91;4991270;28;20041;-42
2022/12/28 03:34:06;;;;;;;9.52;5.85;;;;;;;10.97;72.27;101177.78;4991229;28;20521;-42
2022/12/28 03:36:57;;;;;;;12.05;5.90;;;;;;;10.81;73.60;101186.19;4991941;28;20042;-40
2022/12/28 03:39:48;;;;;;;10.45;5.63;;;;;;;11.09;72.68;101169.28;4990072;28;20084;-46
2022/12/28 03:45:34;;;;;;;10.50;5.20;;;;;;;11.37;72.02;101182.78;4989610;28;20072;-42
2022/12/28 03:48:01;;;;;;;8.48;4.47;;;;;;;10.82;74.01;101177.53;4989877;28;20034;-41
2022/12/28 03:50:28;;;;;;;8.45;4.80;;;;;;;10.96;73.15;101174.31;4988970;28;20027;-42
2022/12/28 03:52:53;;;;;;;6.90;4.47;;;;;;;10.83;74.48;101189.72;4989305;28;20041;-41
2022/12/28 03:55:19;;;;;;;8.10;4.43;;;;;;;11.46;72.08;101166.38;4986325;28;20038;-42
2022/12/28 03:57:44;;;;;;;8.77;4.68;;;;;;;11.36;72.66;101167.06;4988983;28;20030;-43
2022/12/28 04:00:10;;;;;;;7.20;4.50;;;;;;;11.35;73.08;101163.59;4988744;28;20031;-50
2022/12/28 04:02:36;;;;;;;7.90;4.30;;;;;;;11.44;72.65;101151.53;4992162;28;20490;-42
2022/12/28 04:05:03;;;;;;;7.18;4.20;;;;;;;11.33;73.53;101156.59;4990251;28;20538;-40
2022/12/28 04:07:28;;;;;;;10.32;4.40;;;;;;;11.14;74.10;101155.44;4992071;28;20042;-40
2022/12/28 04:09:53;;;;;;;9.18;4.20;;;;;;;11.53;73.16;101156.88;4991194;28;20061;-42
2022/12/28 04:12:19;;;;;;;7.45;3.97;;;;;;;11.22;74.13;101159.03;4989067;28;20038;-42
2022/12/28 04:14:44;;;;;;;6.57;3.97;;;;;;;11.14;74.16;101152.84;4992409;28;20471;-41
2022/12/28 04:17:09;;;;;;;6.68;4.15;;;;;;;11.07;74.28;101142.28;4990064;28;20041;-43
2022/12/28 04:19:34;;;;;;;9.02;4.00;;;;;;;11.16;74.27;101148.50;4992386;28;20042;-42
2022/12/28 04:22:00;;;;;;;6.85;3.90;;;;;;;11.21;74.26;101144.25;4991839;28;20446;-42
2022/12/28 04:24:25;;;;;;;9.05;3.95;;;;;;;11.09;74.67;101161.47;4993709;28;20037;-40
2022/12/28 04:26:50;;;;;;;7.75;3.88;;;;;;;11.24;74.36;101136.47;4992190;28;20038;-42
2022/12/28 04:29:16;;;;;;;6.38;4.32;;;;;;;11.20;73.85;101145.09;4988430;28;20326;-47
2022/12/28 04:31:41;;;;;;;8.18;3.90;;;;;;;11.40;73.56;101127.13;4993396;28;20030;-41
2022/12/28 04:34:06;;;;;;;5.60;3.88;;;;;;;11.46;72.86;101137.66;4991347;28;20156;-43
2022/12/28 04:36:32;;;;;;;7.90;4.30;;;;;;;11.34;74.11;101134.88;4993015;28;20098;-41
2022/12/28 04:38:58;;;;;;;8.40;4.30;;;;;;;11.04;74.64;101137.03;4989348;28;20422;-42
2022/12/28 04:41:24;;;;;;;7.13;3.97;;;;;;;11.37;74.36;101124.47;4991563;28;20081;-40
2022/12/28 04:43:49;;;;;;;7.28;4.20;;;;;;;11.11;74.42;101121.47;4991698;28;20034;-41
2022/12/28 04:46:16;;;;;;;8.50;4.30;;;;;;;11.34;74.42;101114.00;4989518;28;20034;-42
2022/12/28 04:48:42;;;;;;;8.52;4.13;;;;;;;11.29;74.48;101115.63;4990517;28;20058;-41
2022/12/28 04:51:16;;;;;;;8.88;4.00;;;;;;;11.28;74.09;101116.53;4989088;28;20083;-44
2022/12/28 04:53:42;;;;;;;6.43;3.55;;;;;;;11.45;73.89;101116.75;4990660;28;20555;-41
2022/12/28 04:56:09;;;;;;;9.48;3.67;;;;;;;11.42;74.29;101122.78;4989291;28;20158;-42
2022/12/28 04:58:35;;;;;;;6.93;3.42;;;;;;;11.67;73.38;101124.00;4991526;28;20030;-43
2022/12/28 05:01:06;;;;;;;7.55;3.50;;;;;;;11.25;74.52;101117.34;4989403;28;20045;-41
2022/12/28 05:03:32;;;;;;;7.00;3.40;;;;;;;11.35;74.71;101100.94;4991773;28;20062;-40
2022/12/28 05:06:01;;;;;;;7.95;3.38;;;;;;;11.49;74.19;101101.13;4988455;28;20066;-42
2022/12/28 05:08:27;;;;;;;5.35;3.08;;;;;;;11.30;75.15;101096.50;4989224;28;20038;-44
2022/12/28 05:10:52;;;;;;;5.28;2.97;;;;;;;11.55;74.62;101105.56;4988831;28;20154;-46
2022/12/28 05:13:18;;;;;;;6.13;3.28;;;;;;;11.54;74.88;101106.41;4986248;28;20058;-41
2022/12/28 05:15:43;;;;;;;4.95;3.00;;;;;;;11.68;74.13;101104.88;4988995;28;20033;-43
2022/12/28 05:18:08;;;;;;;4.45;3.22;;;;;;;11.50;75.22;101112.47;4988567;28;20117;-39
2022/12/28 05:20:34;;;;;;;7.03;2.83;;;;;;;11.53;74.91;101109.88;4989417;28;20034;-43
2022/12/28 05:22:59;;;;;;;6.07;3.10;;;;;;;11.33;75.22;101109.63;4987606;28;20038;-44
2022/12/28 05:25:24;;;;;;;7.18;3.08;;;;;;;11.69;74.37;101098.78;4994111;28;20057;-44
2022/12/28 05:27:49;;;;;;;4.35;2.88;;;;;;;11.50;74.28;101094.19;4997044;28;20122;-42
2022/12/28 05:30:15;;;;;;;5.30;2.90;;;;;;;11.53;74.83;101091.59;4987036;28;20057;-40
2022/12/28 05:32:40;;;;;;;5.28;2.75;;;;;;;11.88;73.51;101099.91;4988229;28;20042;-41
2022/12/28 05:35:06;;;;;;;4.25;2.88;;;;;;;11.86;72.71;101099.00;4986214;28;20042;-41
2022/12/28 05:37:31;;;;;;;5.43;2.90;;;;;;;11.59;73.71;101092.56;4988034;28;20568;-47
2022/12/28 05:39:56;;;;;;;5.05;2.70;;;;;;;11.72;73.67;101083.13;5001422;28;20434;-43
2022/12/28 05:42:22;;;;;;;5.82;3.00;;;;;;;11.88;72.51;101094.69;4987877;28;20094;-42
2022/12/28 05:44:47;;;;;;;6.00;2.78;;;;;;;12.19;72.20;101084.59;4988429;28;20038;-44
2022/12/28 05:47:12;;;;;;;4.85;2.60;;;;;;;11.65;73.59;101083.91;4985789;28;20030;-41
2022/12/28 05:49:38;;;;;;;5.65;3.00;;;;;;;11.91;73.05;101085.13;4988163;28;20428;-41
2022/12/28 05:52:03;;;;;;;5.30;2.80;;;;;;;11.63;73.28;101069.97;4985638;28;20046;-42
2022/12/28 05:54:29;;;;;;;5.15;3.00;;;;;;;11.88;72.60;101079.91;4988056;28;20064;-44
2022/12/28 05:56:54;;;;;;;4.32;2.75;;;;;;;11.99;72.54;101075.66;4985525;28;20034;-39
2022/12/28 05:59:19;;;;;;;4.28;2.92;;;;;;;11.86;73.35;101079.00;4987929;28;20073;-45
2022/12/28 06:01:45;;;;;;;5.53;2.88;;;;;;;11.75;73.72;101076.25;4987633;28;20026;-42
2022/12/28 06:04:16;;;;;;;6.15;2.90;;;;;;;11.94;72.77;101085.19;4986254;28;20038;-41
2022/12/28 06:06:42;;;;;;;6.45;3.10;;;;;;;11.98;73.28;101073.91;4987104;28;20031;-45
2022/12/28 06:09:07;;;;;;;6.65;3.10;;;;;;;11.99;72.65;101074.78;4985946;28;20038;-46
2022/12/28 06:11:32;;;;;;;7.15;3.00;;;;;;;11.76;74.36;101077.16;4988414;28;20092;-43
2022/12/28 06:13:59;;;;;;;6.13;2.80;;;;;;;12.06;72.93;101061.81;4986374;28;20403;-44
2022/12/28 06:16:29;;;;;;;7.15;3.00;;;;;;;12.03;72.86;101068.72;4987111;28;20034;-44
2022/12/28 06:18:55;;;;;;;5.75;3.00;;;;;;;12.13;73.17;101070.59;4985401;28;20430;-43
2022/12/28 06:21:29;;;;;;;7.07;3.22;;;;;;;11.76;74.05;101077.16;4987515;28;20037;-44
2022/12/28 06:23:56;;;;;;;5.13;3.00;;;;;;;11.98;73.62;101068.69;4986207;28;20034;-38
2022/12/28 06:26:22;;;;;;;6.50;3.10;;;;;;;11.80;74.69;101073.69;4987801;28;20034;-42
2022/12/28 06:28:48;;;;;;;6.65;2.88;;;;;;;12.12;73.90;101063.59;4987693;28;20129;-41
2022/12/28 06:31:16;;;;;;;7.90;3.17;;;;;;;12.06;73.88;101061.81;4986461;28;21470;-43
2022/12/28 06:33:42;;;;;;;6.43;3.28;;;;;;;12.11;74.12;101061.84;4991239;28;20045;-40
2022/12/28 06:36:12;;;;;;;8.43;3.35;;;;;;;11.73;74.96;101062.31;4989746;28;20550;-42
2022/12/28 06:38:38;;;;;;;5.53;3.30;;;;;;;12.02;74.83;101062.63;4991592;28;20160;-43
2022/12/28 06:41:04;;;;;;;5.05;3.03;;;;;;;12.18;74.14;101068.91;4989433;28;20124;-45
2022/12/28 06:43:34;;;;;;;8.38;3.55;;;;;;;11.92;74.79;101066.00;4991071;28;20034;-44
2022/12/28 06:46:01;;;;;;;6.28;3.20;;;;;;;12.37;73.21;101059.50;4989094;28;20035;-42
2022/12/28 06:48:28;;;;;;;4.65;3.35;;;;;;;11.73;75.23;101070.13;4990822;28;20049;-42
2022/12/28 06:50:57;;;;;;;6.15;3.58;;;;;;;11.87;75.91;101059.84;4991322;28;20112;-41
2022/12/28 06:53:23;;;;;;;7.10;3.60;;;;;;;12.02;74.91;101054.78;4990215;28;20038;-44
2022/12/28 06:56:00;;;;;;;5.43;3.60;;;;;;;12.15;74.78;101047.94;4991104;28;20054;-42
2022/12/28 06:58:28;;;;;;;6.70;3.47;;;;;;;11.82;75.67;101055.44;4989678;28;20031;-42
2022/12/28 07:00:53;;;;;;;4.95;3.20;;;;;;;12.18;74.43;101043.63;4992150;28;20402;-42
2022/12/28 07:03:20;;;;;;;7.47;3.53;;;;;;;11.85;75.74;101058.94;4995174;28;20225;-42
2022/12/28 07:05:45;;;;;;;5.53;3.10;;;;;;;12.33;73.60;101052.47;4994853;28;20094;-42
2022/12/28 07:08:11;;;;;;;8.63;3.88;;;;;;;12.05;74.53;101033.91;4989359;28;20117;-42
2022/12/28 07:10:36;;;;;;;5.43;3.45;;;;;;;11.83;74.94;101045.03;4990786;28;20030;-43
2022/12/28 07:13:03;;;;;;;5.80;3.05;;;;;;;11.99;75.39;101038.19;4989600;28;20427;-43
2022/12/28 07:15:29;;;;;;;6.28;3.10;;;;;;;11.98;74.78;101032.09;4993002;28;20031;-43
2022/12/28 07:17:54;;;;;;;5.90;3.10;;;;;;;11.68;76.14;101040.44;4994099;28;20061;-40
2022/12/28 07:20:20;;;;;;;4.70;3.03;;;;;;;12.13;74.86;101036.63;4997487;28;20431;-42
2022/12/28 07:22:45;;;;;;;6.03;3.30;;;;;;;11.70;75.80;101051.81;4994818;28;20039;-44
2022/12/28 07:25:10;;;;;;;7.07;3.30;;;;;;;11.97;75.78;101055.59;4996724;28;20066;-42
2022/12/28 07:27:36;;;;;;;5.55;3.15;;;;;;;11.94;75.25;101052.97;4998727;28;20026;-47
2022/12/28 07:30:01;;;;;;;3.90;2.88;;;;;;;12.15;74.41;101047.94;4992441;28;20278;-42
2022/12/28 07:32:27;;;;;;;5.75;2.92;;;;;;;11.92;74.73;101052.94;4993611;28;20467;-43
2022/12/28 07:34:52;;;;;;;9.82;3.17;;;;;;;11.92;75.35;101039.00;4995488;28;20085;-43
2022/12/28 07:37:17;;;;;;;5.03;2.78;;;;;;;12.20;74.11;101047.13;4996188;28;20038;-41
2022/12/28 07:39:43;;;;;;;4.43;2.67;;;;;;;12.60;73.08;101044.84;4998143;28;20114;-41
2022/12/28 07:42:10;;;;;;;5.43;2.95;;;;;;;12.38;73.56;101042.94;4990656;28;20054;-49
2022/12/28 07:44:36;;;;;;;6.95;2.90;;;;;;;12.26;73.35;101033.22;4992075;28;20034;-43
2022/12/28 07:47:01;;;;;;;4.82;2.75;;;;;;;12.19;73.58;101034.06;4989828;28;20038;-41
2022/12/28 07:49:26;;;;;;;5.65;2.80;;;;;;;12.77;71.97;101034.50;4994895;28;20156;-47
2022/12/28 07:51:52;;;;;;;6.30;2.83;;;;;;;12.44;72.67;101038.63;4995044;28;20078;-42
2022/12/28 07:54:17;;;;;;;4.32;2.92;;;;;;;12.27;73.39;101029.75;4991784;28;20050;-42
2022/12/28 07:56:43;;;;;;;4.38;2.92;;;;;;;12.57;72.35;101032.63;4992199;28;20038;-46
2022/12/28 07:59:12;;;;;;;5.60;2.92;;;;;;;12.66;72.03;101038.78;4990963;28;20038;-41
2022/12/28 08:01:38;;;;;;;5.57;3.28;;;;;;;12.32;73.17;101042.88;4994102;28;20042;-41
2022/12/28 08:04:08;;;;;;;4.95;3.17;;;;;;;12.35;73.65;101037.66;4990725;28;20046;-40
2022/12/28 08:06:36;;;;;;;4.70;3.15;;;;;;;12.42;72.68;101034.25;4992842;28;20105;-44
2022/12/28 08:09:03;;;;;;;7.00;3.28;;;;;;;12.22;72.77;101036.69;4992758;28;20101;-43
2022/12/28 08:11:31;;;;;;;6.50;3.40;;;;;;;12.60;72.15;101037.00;4993280;28;20030;-43
2022/12/28 08:13:58;;;;;;;5.68;3.30;;;;;;;12.43;72.57;101043.84;4989663;28;20597;-42
2022/12/28 08:16:25;;;;;;;5.40;3.35;;;;;;;12.04;74.24;101040.00;4989967;28;20042;-42
2022/12/28 08:18:51;;;;;;;6.57;3.88;;;;;;;12.58;72.60;101038.72;4989895;28;20046;-44
2022/12/28 08:21:23;;;;;;;5.35;4.30;;;;;;;12.17;73.60;101035.78;4987668;28;20439;-43
2022/12/28 08:23:49;;;;;;;6.97;4.60;;;;;;;12.15;73.69;101040.97;4990718;28;20447;-41
2022/12/28 08:26:18;;;;;;;8.00;4.60;;;;;;;12.21;73.03;101024.47;4989103;28;20061;-43
2022/12/28 08:28:46;;;;;;;7.18;5.05;;;;;;;12.46;72.62;101036.91;4990617;28;20030;-44
2022/12/28 08:31:39;;;;;;;7.53;5.80;;;;;;;12.62;71.55;101032.69;4989132;28;20038;-44
2022/12/28 08:34:07;;;;;;;7.63;5.60;;;;;;;12.14;73.25;101025.28;4989388;28;20046;-41
2022/12/28 08:36:33;;;;;;;8.02;6.18;;;;;;;12.60;72.50;101040.50;4991496;28;20038;-44
2022/12/28 08:39:00;;;;;;;9.93;6.30;;;;;;;12.73;71.42;101024.91;4988400;28;20042;-42
2022/12/28 08:41:26;;;;;;;8.95;6.07;;;;;;;12.45;71.80;101029.03;4989038;28;20031;-41
2022/12/28 08:43:53;;;;;;;10.23;6.35;;;;;;;12.57;71.95;101023.91;4990164;28;20038;-41
2022/12/28 08:46:26;;;;;;;9.60;6.90;;;;;;;12.58;72.16;101023.03;4988390;28;20098;-43
2022/12/28 08:48:54;;;;;;;9.07;6.70;;;;;;;12.93;70.42;101016.28;4993023;28;20126;-45
2022/12/28 08:51:32;;;;;;;10.07;6.40;;;;;;;12.66;71.11;101021.38;4990317;28;20121;-41
2022/12/28 08:53:58;;;;;;;8.13;6.50;;;;;;;12.57;71.90;101018.66;4987776;28;20092;-41
2022/12/28 08:56:26;;;;;;;9.50;5.97;;;;;;;12.31;72.45;101025.44;4989592;28;20027;-40
2022/12/28 08:58:52;;;;;;;7.70;5.65;;;;;;;12.49;72.21;101016.03;4990117;28;20030;-43
2022/12/28 09:01:21;;;;;;;6.20;4.90;;;;;;;12.94;70.49;101018.06;4987417;28;20377;-44
2022/12/28 09:03:49;;;;;;;7.88;4.97;;;;;;;12.34;73.38;101023.72;4989480;28;20061;-43
2022/12/28 09:06:17;;;;;;;6.60;4.63;;;;;;;12.66;71.91;101016.13;5016735;22;20050;-41
2022/12/28 09:08:43;;;;;;;6.35;4.60;;;;;;;12.78;71.37;101010.97;5009951;28;20556;-41
2022/12/28 09:11:11;;;;;;;7.30;4.38;;;;;;;12.65;71.93;101011.75;5006745;28;20121;-42
2022/12/28 09:13:36;;;;;;;6.40;4.53;;;;;;;12.71;71.34;101019.66;5008418;28;20041;-43
2022/12/28 09:16:05;;;;;;;6.63;4.50;;;;;;;12.65;71.56;101011.75;5006021;28;20038;-41
2022/12/28 09:18:32;;;;;;;7.78;4.78;;;;;;;12.42;72.62;101011.59;5007638;28;20510;-41
2022/12/28 09:21:07;;;;;;;8.50;4.47;;;;;;;12.57;72.40;101009.09;5004807;28;20038;-38
2022/12/28 09:23:33;;;;;;;8.10;4.47;;;;;;;12.28;73.07;101018.44;5007429;28;20033;-43
2022/12/28 09:26:13;;;;;;;9.48;4.65;;;;;;;12.10;73.95;101010.44;5004839;28;20038;-41
2022/12/28 09:28:39;;;;;;;9.40;4.65;;;;;;;12.17;73.34;101009.63;5007336;28;20095;-42
2022/12/28 09:31:06;;;;;;;6.65;4.25;;;;;;;12.31;72.75;101002.78;5004560;28;20069;-42
2022/12/28 09:36:15;;;;;;;7.95;4.88;;;;;;;12.52;72.56;100999.44;5005150;28;20041;-43
2022/12/28 09:38:42;;;;;;;9.65;4.85;;;;;;;12.61;71.84;101007.38;5007137;28;20431;-42
2022/12/28 09:41:21;;;;;;;9.15;5.32;;;;;;;12.33;72.78;101019.34;5004906;28;20128;-41
2022/12/28 09:43:49;;;;;;;10.02;5.20;;;;;;;12.81;70.65;101003.13;5007020;28;20034;-41
2022/12/28 09:46:19;;;;;;;8.65;4.80;;;;;;;12.62;71.30;101011.75;5005860;28;20041;-42
2022/12/28 09:48:52;;;;;;;9.45;4.55;;;;;;;12.80;70.00;101014.50;5007978;28;20034;-43
2022/12/28 09:51:20;;;;;;;7.07;4.20;;;;;;;13.02;69.77;101005.91;5006207;28;20084;-41
2022/12/28 09:53:45;;;;;;;8.85;4.20;;;;;;;12.98;69.67;101008.50;5008356;28;20033;-41
2022/12/28 09:56:32;;;;;;;7.43;4.32;;;;;;;12.80;69.78;101021.47;5005793;28;20045;-42
2022/12/28 09:58:58;;;;;;;8.60;3.88;;;;;;;13.06;69.38;101005.91;5004838;28;20441;-41
2022/12/28 10:01:25;;;;;;;7.72;3.95;;;;;;;12.59;71.00;101002.13;5006647;28;20092;-42
2022/12/28 10:03:51;;;;;;;7.95;3.85;;;;;;;12.59;70.30;101001.25;5005104;28;20080;-42
2022/12/28 10:06:23;;;;;;;6.03;3.63;;;;;;;12.45;71.54;101006.38;5004296;28;20030;-41
2022/12/28 10:08:54;;;;;;;8.15;3.92;;;;;;;12.54;70.89;100997.75;5006705;28;20541;-42
2022/12/28 10:11:28;;;;;;;7.97;3.80;;;;;;;12.80;69.82;101001.41;5004398;28;20121;-41
2022/12/28 10:13:58;;;;;;;9.23;4.10;;;;;;;12.81;69.59;100994.41;5007142;28;20065;-41
2022/12/28 10:16:28;;;;;;;7.95;3.40;;;;;;;12.78;70.53;100989.19;5004895;28;20064;-41
2022/12/28 10:18:54;;;;;;;6.90;3.55;;;;;;;12.76;70.58;100993.50;5007834;28;20034;-42
2022/12/28 10:21:21;;;;;;;6.28;3.80;;;;;;;12.27;71.92;101005.34;5003710;28;20042;-42
2022/12/28 10:23:50;;;;;;;7.45;3.78;;;;;;;12.96;70.56;100991.91;5005394;28;20506;-41
2022/12/28 10:26:17;;;;;;;8.18;4.00;;;;;;;12.51;71.95;100989.84;5005290;28;20101;-41
2022/12/28 10:28:52;;;;;;;6.85;4.13;;;;;;;12.33;73.54;100995.81;5008350;28;20030;-41
2022/12/28 10:31:35;;;;;;;7.82;4.20;;;;;;;12.32;73.41;100998.44;5006402;28;20092;-41
2022/12/28 10:34:10;;;;;;;8.15;4.07;;;;;;;12.07;74.42;101002.59;5006348;28;20533;-42
2022/12/28 10:36:35;;;;;;;10.82;4.00;;;;;;;12.50;73.52;100991.59;5006345;28;20608;-42
2022/12/28 10:39:01;;;;;;;9.60;3.80;;;;;;;12.02;74.30;100988.56;5003368;28;20026;-41
2022/12/28 10:41:36;;;;;;;6.78;4.00;;;;;;;12.22;74.78;100989.63;5006500;28;20164;-42
2022/12/28 10:44:17;;;;;;;7.30;4.03;;;;;;;12.60;73.01;100976.84;5004430;28;20061;-43
2022/12/28 10:46:58;;;;;;;6.85;3.70;;;;;;;12.68;72.96;100979.53;5006459;28;20120;-43
2022/12/28 10:49:26;;;;;;;7.70;4.13;;;;;;;12.40;73.53;100976.72;5004217;28;20053;-40
2022/12/28 10:52:19;;;;;;;7.40;3.92;;;;;;;12.20;74.55;100973.06;5005468;28;20026;-39
2022/12/28 10:54:45;;;;;;;6.82;4.00;;;;;;;12.51;73.55;100979.41;5004880;28;20033;-42
2022/12/28 10:57:16;;;;;;;7.15;3.92;;;;;;;12.34;73.48;100981.00;5005879;28;20042;-41
2022/12/28 10:59:42;;;;;;;6.80;4.03;;;;;;;12.07;74.89;100969.50;5008739;28;20557;-40
2022/12/28 11:02:27;;;;;;;7.85;4.30;;;;;;;12.42;74.01;100966.28;5007104;28;20038;-38
2022/12/28 11:04:55;;;;;;;7.68;3.92;;;;;;;12.53;73.54;100969.84;5007912;28;20092;-40
2022/12/28 11:07:27;;;;;;;7.90;3.75;;;;;;;12.10;74.65;100966.00;5006351;28;20038;-42
2022/12/28 11:09:52;;;;;;;5.40;3.95;;;;;;;12.32;74.42;100959.22;5008319;28;20034;-41
2022/12/28 11:12:22;;;;;;;10.35;4.10;;;;;;;11.88;75.66;100958.84;5008314;28;20316;-37
2022/12/28 11:14:48;;;;;;;7.10;3.70;;;;;;;12.35;74.13;100954.00;5011096;28;20034;-43
2022/12/28 11:17:16;;;;;;;5.85;3.55;;;;;;;12.24;73.98;100948.72;5006615;28;22202;-40
2022/12/28 11:19:42;;;;;;;6.80;3.25;;;;;;;12.47;73.42;100936.66;5013318;28;20029;-41
2022/12/28 11:22:12;;;;;;;5.15;3.40;;;;;;;12.22;73.86;100946.94;5007550;28;20176;-41
2022/12/28 11:24:38;;;;;;;7.22;3.70;;;;;;;12.12;75.07;100931.19;5008694;28;20034;-43
2022/12/28 11:27:03;;;;;;;6.50;3.28;;;;;;;12.53;73.54;100941.06;5007905;28;20131;-39
2022/12/28 11:29:29;;;;;;;6.32;3.13;;;;;;;12.50;73.18;100928.81;5009399;28;20552;-42
2022/12/28 11:32:11;;;;;;;7.43;3.30;;;;;;;12.42;74.02;100938.38;5009278;28;20516;-49
2022/12/28 11:34:37;;;;;;;6.75;3.25;;;;;;;12.22;74.33;100934.75;5013989;28;20038;-41
2022/12/28 11:37:02;;;;;;;7.53;3.40;;;;;;;12.05;75.33;100926.78;5013257;28;20041;-41
2022/12/28 11:39:30;;;;;;;6.00;3.20;;;;;;;12.44;73.94;100939.25;5014797;28;20124;-39
2022/12/28 11:41:57;;;;;;;6.32;3.38;;;;;;;12.32;74.12;100930.47;5008421;28;20045;-43
2022/12/28 11:44:29;;;;;;;5.13;3.20;;;;;;;12.45;73.25;100937.50;5009262;28;20084;-41
2022/12/28 11:47:24;;;;;;;6.45;3.20;;;;;;;12.18;74.26;100925.13;5007389;28;20042;-54
2022/12/28 11:49:50;;;;;;;7.35;3.30;;;;;;;12.21;74.32;100927.75;5005326;28;20117;-41
2022/12/28 11:52:15;;;;;;;6.43;3.38;;;;;;;12.01;74.92;100918.91;5006356;28;20121;-40
2022/12/28 11:54:54;;;;;;;8.20;3.67;;;;;;;12.19;74.00;100912.09;5008787;28;20049;-43
2022/12/28 11:57:38;;;;;;;8.85;3.38;;;;;;;12.28;74.53;100907.78;5006789;28;20057;-42
2022/12/28 12:00:16;;;;;;;5.07;2.90;;;;;;;12.35;74.09;100893.88;5005350;28;20037;-43